Time;durP1;ratioP1;P1;durP2;ratioP2;P2;SDS_P1;SDS_P2;PMS_P1;PMS_P2;Temp;Humidity;BMP_temperature;BMP_pressure;BME280_temperature;BME280_humidity;BME280_pressure;Samples;Min_cycle;Max_cycle;Signal;HPM_P1;HPM_P2
2022/01/19 00:01:27;;;;;;;0.00;0.00;;;2.10;99.90;;;;;;5099012;28;20089;-68
2022/01/19 00:03:53;;;;;;;0.00;0.00;;;2.00;99.90;;;;;;5084523;28;20384;-70
2022/01/19 00:06:19;;;;;;;0.00;0.00;;;2.00;99.90;;;;;;5077343;28;20095;-70
2022/01/19 00:08:45;;;;;;;0.00;0.00;;;2.00;99.90;;;;;;5073346;28;20286;-69
2022/01/19 00:11:11;;;;;;;0.00;0.00;;;2.00;99.90;;;;;;5076630;28;20024;-69
2022/01/19 00:13:37;;;;;;;0.00;0.00;;;2.00;99.90;;;;;;5075763;28;20021;-69
2022/01/19 00:16:03;;;;;;;0.00;0.00;;;2.00;99.90;;;;;;5088891;28;20364;-68
2022/01/19 00:18:29;;;;;;;0.00;0.00;;;2.00;99.90;;;;;;5080468;28;20035;-69
2022/01/19 00:20:56;;;;;;;0.00;0.00;;;2.00;99.90;;;;;;5074627;28;20025;-70
2022/01/19 00:23:23;;;;;;;0.00;0.00;;;2.10;99.90;;;;;;5080771;28;20030;-70
2022/01/19 00:25:51;;;;;;;0.00;0.00;;;2.00;99.90;;;;;;5077086;28;20039;-69
2022/01/19 00:28:17;;;;;;;0.00;0.00;;;2.10;99.90;;;;;;5090048;28;20296;-70
2022/01/19 00:33:28;;;;;;;0.00;0.00;;;2.00;99.90;;;;;;5076113;28;20051;-69
2022/01/19 00:35:54;;;;;;;0.00;0.00;;;2.00;99.90;;;;;;5074005;28;20024;-70
2022/01/19 00:38:20;;;;;;;0.00;0.00;;;2.00;99.90;;;;;;5075397;28;20020;-68
2022/01/19 00:40:47;;;;;;;0.00;0.00;;;2.00;99.90;;;;;;5075300;28;20039;-70
2022/01/19 00:43:14;;;;;;;0.00;0.00;;;2.00;99.90;;;;;;5083077;28;20035;-69
2022/01/19 00:45:41;;;;;;;0.00;0.00;;;2.00;99.90;;;;;;5077047;28;20077;-69
2022/01/19 00:48:07;;;;;;;0.00;0.00;;;2.00;99.90;;;;;;5077689;28;20396;-68
2022/01/19 00:50:33;;;;;;;0.00;0.00;;;1.90;99.90;;;;;;5075821;28;20017;-69
2022/01/19 00:52:59;;;;;;;0.00;0.00;;;1.90;99.90;;;;;;5075028;28;20466;-68
2022/01/19 00:55:26;;;;;;;0.00;0.00;;;1.90;99.90;;;;;;5075116;28;20145;-68
2022/01/19 00:57:52;;;;;;;0.00;0.00;;;1.90;99.90;;;;;;5075162;28;20033;-67
2022/01/19 01:00:21;;;;;;;0.00;0.00;;;1.90;99.90;;;;;;5080910;28;20020;-67
2022/01/19 01:02:47;;;;;;;0.00;0.00;;;1.90;99.90;;;;;;5077879;28;20197;-68
2022/01/19 01:05:13;;;;;;;0.00;0.00;;;1.90;99.90;;;;;;5105637;28;20217;-67
2022/01/19 01:07:40;;;;;;;0.00;0.00;;;1.80;99.90;;;;;;5111603;28;20091;-68
2022/01/19 01:10:12;;;;;;;0.00;0.00;;;1.80;99.90;;;;;;5099375;28;20086;-67
2022/01/19 01:12:44;;;;;;;0.00;0.00;;;1.70;99.90;;;;;;5115761;28;20196;-68
2022/01/19 01:20:28;;;;;;;0.00;0.00;;;1.70;99.90;;;;;;5121838;27;20028;-68
2022/01/19 01:22:54;;;;;;;0.00;0.00;;;1.70;99.90;;;;;;5118721;27;20355;-67
2022/01/19 01:25:19;;;;;;;0.00;0.00;;;1.70;99.90;;;;;;5119737;27;20040;-69
2022/01/19 01:27:46;;;;;;;0.00;0.00;;;1.70;99.90;;;;;;5123726;27;20016;-69
2022/01/19 01:30:12;;;;;;;0.00;0.00;;;1.70;99.90;;;;;;5119684;27;20034;-69
2022/01/19 01:32:39;;;;;;;0.00;0.00;;;1.70;99.90;;;;;;5119427;27;20032;-68
2022/01/19 01:35:05;;;;;;;0.00;0.00;;;1.70;99.90;;;;;;5115548;28;20436;-68
2022/01/19 01:37:31;;;;;;;0.00;0.00;;;1.60;99.90;;;;;;5125455;27;20031;-69
2022/01/19 01:39:57;;;;;;;0.00;0.00;;;1.70;99.90;;;;;;5115035;27;20590;-68
2022/01/19 01:42:24;;;;;;;0.00;0.00;;;1.70;99.90;;;;;;5116264;27;20037;-68
2022/01/19 01:44:52;;;;;;;0.00;0.00;;;1.80;99.90;;;;;;5121978;27;20030;-69
2022/01/19 01:47:20;;;;;;;0.00;0.00;;;1.90;99.90;;;;;;5122972;27;20023;-69
2022/01/19 01:55:09;;;;;;;0.00;0.00;;;1.90;99.90;;;;;;5119503;27;20307;-69
2022/01/19 01:57:35;;;;;;;0.00;0.00;;;1.90;99.90;;;;;;5102052;28;20034;-68
2022/01/19 02:00:01;;;;;;;0.00;0.00;;;1.90;99.90;;;;;;5118364;27;20798;-68
2022/01/19 02:02:26;;;;;;;0.00;0.00;;;1.90;99.90;;;;;;5119454;27;20574;-68
2022/01/19 02:05:11;;;;;;;0.00;0.00;;;1.90;99.90;;;;;;5118103;27;20069;-67
2022/01/19 02:08:04;;;;;;;0.00;0.00;;;1.90;99.90;;;;;;5118542;27;20039;-68
2022/01/19 02:21:39;;;;;;;0.00;0.00;;;1.70;99.90;;;;;;5118926;27;20054;-66
2022/01/19 02:24:10;;;;;;;0.00;0.00;;;1.70;99.90;;;;;;5119425;27;20051;-66
2022/01/19 02:29:55;;;;;;;0.00;0.00;;;1.70;99.90;;;;;;5121127;27;20303;-66
2022/01/19 02:40:25;;;;;;;0.00;0.00;;;1.60;99.90;;;;;;5124498;27;20073;-65
2022/01/19 02:51:02;;;;;;;0.00;0.00;;;1.60;99.90;;;;;;5117681;27;20145;-66
2022/01/19 02:53:28;;;;;;;0.00;0.00;;;1.60;99.90;;;;;;5128245;27;20305;-67
2022/01/19 02:55:54;;;;;;;0.00;0.00;;;1.50;99.90;;;;;;5117016;27;20023;-67
2022/01/19 02:58:22;;;;;;;0.00;0.00;;;1.50;99.90;;;;;;5105064;28;20118;-66
2022/01/19 03:09:03;;;;;;;0.00;0.00;;;1.50;99.90;;;;;;5086995;27;20031;-65
2022/01/19 03:11:30;;;;;;;0.00;0.00;;;1.50;99.90;;;;;;5114234;28;20055;-65
2022/01/19 03:13:56;;;;;;;0.00;0.00;;;1.50;99.90;;;;;;5102748;28;20129;-67
2022/01/19 03:16:22;;;;;;;0.00;0.00;;;1.50;99.90;;;;;;5116114;27;20245;-69
2022/01/19 03:18:49;;;;;;;0.00;0.00;;;1.50;99.90;;;;;;5098167;27;20122;-69
2022/01/19 03:21:16;;;;;;;0.00;0.00;;;1.40;99.90;;;;;;5107672;28;20155;-69
2022/01/19 03:23:43;;;;;;;0.00;0.00;;;1.40;99.90;;;;;;5120853;27;20031;-69
2022/01/19 03:26:08;;;;;;;0.00;0.00;;;1.40;99.90;;;;;;5113504;28;20064;-69
2022/01/19 03:28:35;;;;;;;0.00;0.00;;;1.30;99.90;;;;;;5098501;28;20268;-69
2022/01/19 03:31:01;;;;;;;0.00;0.00;;;1.40;99.90;;;;;;5115992;27;20039;-69
2022/01/19 03:33:27;;;;;;;0.00;0.00;;;1.30;99.90;;;;;;5099400;28;20324;-68
2022/01/19 03:35:53;;;;;;;0.00;0.00;;;1.30;99.90;;;;;;5117495;27;20324;-68
2022/01/19 03:38:19;;;;;;;0.00;0.00;;;1.30;99.90;;;;;;5112847;28;20351;-68
2022/01/19 03:40:44;;;;;;;0.00;0.00;;;1.30;99.90;;;;;;5098597;28;20019;-68
2022/01/19 03:43:11;;;;;;;0.00;0.00;;;1.20;99.90;;;;;;5115940;27;20032;-69
2022/01/19 03:45:38;;;;;;;0.00;0.00;;;1.20;99.90;;;;;;5118753;27;20060;-68
2022/01/19 03:48:27;;;;;;;0.00;0.00;;;1.20;99.90;;;;;;5115412;27;20087;-68
2022/01/19 03:50:52;;;;;;;0.00;0.00;;;1.20;99.90;;;;;;5122715;27;20023;-68
2022/01/19 03:53:18;;;;;;;0.00;0.00;;;1.20;99.90;;;;;;5113299;27;20137;-66
2022/01/19 03:55:44;;;;;;;0.00;0.00;;;1.20;99.90;;;;;;5102909;28;20027;-67
2022/01/19 03:58:10;;;;;;;0.00;0.00;;;1.10;99.90;;;;;;5116676;27;20048;-68
2022/01/19 04:00:41;;;;;;;0.00;0.00;;;1.10;99.90;;;;;;5112857;28;20028;-68
2022/01/19 04:03:09;;;;;;;0.00;0.00;;;1.10;99.90;;;;;;5114753;27;20249;-67
2022/01/19 04:05:54;;;;;;;0.00;0.00;;;1.00;99.90;;;;;;5102401;28;20032;-67
2022/01/19 04:08:20;;;;;;;0.00;0.00;;;1.10;99.90;;;;;;5118660;27;20290;-67
2022/01/19 04:10:46;;;;;;;0.00;0.00;;;1.00;99.90;;;;;;5100294;27;20069;-67
2022/01/19 04:15:50;;;;;;;0.00;0.00;;;1.00;99.90;;;;;;5117575;27;20093;-67
2022/01/19 04:18:16;;;;;;;0.00;0.00;;;1.10;99.90;;;;;;5116278;27;20015;-69
2022/01/19 04:20:43;;;;;;;0.00;0.00;;;1.10;99.90;;;;;;5116602;27;20034;-68
2022/01/19 04:23:08;;;;;;;0.00;0.00;;;1.00;99.90;;;;;;5116187;27;20045;-68
2022/01/19 04:25:34;;;;;;;0.00;0.00;;;1.10;99.90;;;;;;5100173;28;20058;-69
2022/01/19 04:28:06;;;;;;;0.00;0.00;;;1.00;99.90;;;;;;5115092;27;20019;-69
2022/01/19 04:30:32;;;;;;;0.00;0.00;;;1.00;99.90;;;;;;5112153;27;20035;-67
2022/01/19 04:35:28;;;;;;;0.00;0.00;;;1.00;99.90;;;;;;5120152;27;20051;-67
2022/01/19 05:02:37;;;;;;;0.00;0.00;;;0.90;99.90;;;;;;5124394;28;20104;-67
2022/01/19 05:13:25;;;;;;;0.00;0.00;;;0.80;99.90;;;;;;5117261;28;20082;-67
2022/01/19 05:15:52;;;;;;;0.00;0.00;;;0.80;99.90;;;;;;5117390;28;20430;-67
2022/01/19 05:18:18;;;;;;;0.00;0.00;;;0.80;99.90;;;;;;5116872;28;20015;-67
2022/01/19 05:20:45;;;;;;;0.00;0.00;;;0.80;99.90;;;;;;5112282;28;20024;-67
2022/01/19 05:23:11;;;;;;;0.00;0.00;;;0.80;99.90;;;;;;5115407;28;20065;-67
2022/01/19 05:25:38;;;;;;;0.00;0.00;;;0.80;99.90;;;;;;5116210;28;20035;-66
2022/01/19 05:28:04;;;;;;;0.00;0.00;;;0.70;99.90;;;;;;5097866;28;20046;-68
2022/01/19 05:30:29;;;;;;;0.00;0.00;;;0.70;99.90;;;;;;5111651;28;20327;-67
2022/01/19 05:32:55;;;;;;;0.00;0.00;;;0.70;99.90;;;;;;5111551;28;20054;-68
2022/01/19 05:35:21;;;;;;;0.00;0.00;;;0.70;99.90;;;;;;5116239;28;20035;-68
2022/01/19 05:37:47;;;;;;;0.00;0.00;;;0.70;99.90;;;;;;5114687;28;20060;-68
2022/01/19 05:40:14;;;;;;;0.00;0.00;;;0.70;99.90;;;;;;5116090;28;20031;-68
2022/01/19 05:42:40;;;;;;;0.00;0.00;;;0.80;99.90;;;;;;5112598;28;20099;-69
2022/01/19 05:45:06;;;;;;;0.00;0.00;;;0.80;99.90;;;;;;5111703;28;20180;-68
2022/01/19 05:47:33;;;;;;;0.00;0.00;;;0.80;99.90;;;;;;5115275;28;20028;-68
2022/01/19 05:49:58;;;;;;;0.00;0.00;;;0.80;99.90;;;;;;5101083;28;20342;-67
2022/01/19 05:52:24;;;;;;;0.00;0.00;;;0.80;99.90;;;;;;5097246;28;20024;-67
2022/01/19 05:54:51;;;;;;;0.00;0.00;;;0.80;99.90;;;;;;5096537;28;20065;-67
2022/01/19 05:57:17;;;;;;;0.00;0.00;;;0.80;99.90;;;;;;5114977;28;20068;-67
2022/01/19 05:59:42;;;;;;;0.00;0.00;;;0.80;99.90;;;;;;5115515;28;20027;-67
2022/01/19 06:02:08;;;;;;;0.00;0.00;;;0.70;99.90;;;;;;5114352;27;20269;-70
2022/01/19 06:04:34;;;;;;;0.00;0.00;;;0.70;99.90;;;;;;5115364;27;20084;-69
2022/01/19 06:07:02;;;;;;;0.00;0.00;;;0.70;99.90;;;;;;5115756;28;20028;-69
2022/01/19 06:12:25;;;;;;;0.00;0.00;;;0.70;99.90;;;;;;5083443;27;20038;-69
2022/01/19 06:14:51;;;;;;;0.00;0.00;;;0.70;99.90;;;;;;5104248;27;20023;-68
2022/01/19 06:17:17;;;;;;;0.00;0.00;;;0.70;99.90;;;;;;5103163;28;20199;-68
2022/01/19 06:19:44;;;;;;;0.00;0.00;;;0.60;99.90;;;;;;5121535;27;20019;-70
2022/01/19 06:22:10;;;;;;;0.00;0.00;;;0.70;99.90;;;;;;5101259;27;20032;-68
2022/01/19 06:24:37;;;;;;;0.00;0.00;;;0.60;99.90;;;;;;5115078;27;20035;-67
2022/01/19 06:27:03;;;;;;;0.00;0.00;;;0.60;99.90;;;;;;5119697;27;20027;-70
2022/01/19 06:29:29;;;;;;;0.00;0.00;;;0.60;99.90;;;;;;5118292;27;20259;-68
2022/01/19 06:31:54;;;;;;;0.00;0.00;;;0.60;99.90;;;;;;5119267;27;20329;-66
2022/01/19 06:34:20;;;;;;;0.00;0.00;;;0.60;99.90;;;;;;5120089;27;20055;-70
2022/01/19 06:36:48;;;;;;;0.00;0.00;;;0.60;99.90;;;;;;5117822;27;20241;-70
2022/01/19 06:39:14;;;;;;;0.00;0.00;;;0.50;99.90;;;;;;5117318;27;20102;-70
2022/01/19 06:41:39;;;;;;;0.00;0.00;;;0.50;99.90;;;;;;5117991;27;20036;-68
2022/01/19 06:44:05;;;;;;;0.00;0.00;;;0.50;99.90;;;;;;5099232;27;20031;-70
2022/01/19 06:46:31;;;;;;;0.00;0.00;;;0.50;99.90;;;;;;5119015;27;20039;-78
2022/01/19 06:48:57;;;;;;;0.00;0.00;;;0.50;99.90;;;;;;5121519;27;20036;-72
2022/01/19 06:51:23;;;;;;;0.00;0.00;;;0.50;99.90;;;;;;5115795;28;20091;-73
2022/01/19 06:53:49;;;;;;;0.00;0.00;;;0.50;99.90;;;;;;5114605;28;20035;-75
2022/01/19 06:56:16;;;;;;;0.00;0.00;;;0.50;99.90;;;;;;5125823;27;20149;-73
2022/01/19 06:58:41;;;;;;;0.00;0.00;;;0.50;99.90;;;;;;5120911;27;20091;-71
2022/01/19 07:01:07;;;;;;;0.00;0.00;;;0.50;99.90;;;;;;5117214;27;20470;-73
2022/01/19 07:03:33;;;;;;;0.00;0.00;;;0.50;99.90;;;;;;5118094;27;20035;-74
2022/01/19 07:06:00;;;;;;;0.00;0.00;;;0.50;99.90;;;;;;5118158;27;20036;-72
2022/01/19 07:08:27;;;;;;;0.00;0.00;;;0.50;99.90;;;;;;5118592;27;20043;-75
2022/01/19 07:10:53;;;;;;;0.00;0.00;;;0.50;99.90;;;;;;5119693;27;20145;-80
2022/01/19 07:13:19;;;;;;;0.00;0.00;;;0.50;99.90;;;;;;5119457;27;20098;-82
2022/01/19 07:15:45;;;;;;;0.00;0.00;;;0.60;99.90;;;;;;5120036;27;20055;-84
2022/01/19 07:18:11;;;;;;;0.00;0.00;;;0.50;99.90;;;;;;5118037;27;20027;-82
2022/01/19 07:20:37;;;;;;;0.00;0.00;;;0.50;99.90;;;;;;5115030;28;20091;-81
2022/01/19 07:23:03;;;;;;;0.00;0.00;;;0.60;99.90;;;;;;5102644;27;20041;-83
2022/01/19 07:25:29;;;;;;;0.00;0.00;;;0.50;99.90;;;;;;5126265;27;20071;-82
2022/01/19 07:27:55;;;;;;;0.00;0.00;;;0.60;99.90;;;;;;5113943;27;20034;-82
2022/01/19 07:30:22;;;;;;;0.00;0.00;;;0.60;99.90;;;;;;5114964;27;20028;-84
2022/01/19 07:32:49;;;;;;;0.00;0.00;;;0.60;99.90;;;;;;5128592;27;20350;-82
2022/01/19 07:35:16;;;;;;;0.00;0.00;;;0.60;99.90;;;;;;5130256;27;20298;-85
2022/01/19 07:37:42;;;;;;;0.00;0.00;;;0.70;99.90;;;;;;5112890;27;20143;-82
2022/01/19 07:40:08;;;;;;;0.00;0.00;;;0.70;99.90;;;;;;5123934;27;20646;-82
2022/01/19 07:42:34;;;;;;;0.00;0.00;;;0.60;99.90;;;;;;5129510;27;20027;-83
2022/01/19 07:45:00;;;;;;;0.00;0.00;;;0.60;99.90;;;;;;5129420;27;20086;-83
2022/01/19 07:47:28;;;;;;;0.00;0.00;;;0.60;99.90;;;;;;5128417;27;20015;-81
2022/01/19 07:49:54;;;;;;;0.00;0.00;;;0.60;99.90;;;;;;5115035;27;20019;-81
2022/01/19 07:52:21;;;;;;;0.00;0.00;;;0.60;99.90;;;;;;5127373;27;20015;-76
2022/01/19 07:54:47;;;;;;;0.00;0.00;;;0.60;99.90;;;;;;5122383;27;20022;-73
2022/01/19 07:57:13;;;;;;;0.00;0.00;;;0.60;99.90;;;;;;5132083;27;20035;-82
2022/01/19 07:59:39;;;;;;;0.00;0.00;;;0.60;99.90;;;;;;5114930;27;20293;-82
2022/01/19 08:02:05;;;;;;;0.00;0.00;;;0.60;99.90;;;;;;5115320;27;20045;-75
2022/01/19 08:04:30;;;;;;;0.00;0.00;;;0.70;99.90;;;;;;5111569;27;20055;-82
2022/01/19 08:06:56;;;;;;;0.00;0.00;;;0.70;99.90;;;;;;5117310;27;20310;-77
2022/01/19 08:09:25;;;;;;;0.00;0.00;;;0.70;99.90;;;;;;5128509;27;20030;-82
2022/01/19 08:11:52;;;;;;;0.00;0.00;;;0.80;99.90;;;;;;5107624;27;20011;-83
2022/01/19 08:14:18;;;;;;;0.00;0.00;;;0.80;99.90;;;;;;5131133;27;20039;-78
2022/01/19 08:16:44;;;;;;;0.00;0.00;;;0.80;99.90;;;;;;5130030;27;20018;-80
2022/01/19 08:19:10;;;;;;;0.00;0.00;;;0.80;99.90;;;;;;5115002;27;20039;-82
2022/01/19 08:21:36;;;;;;;0.00;0.00;;;0.80;99.90;;;;;;5118153;27;20015;-79
2022/01/19 08:24:02;;;;;;;0.00;0.00;;;1.00;99.90;;;;;;5116443;27;20322;-80
2022/01/19 08:26:28;;;;;;;0.00;0.00;;;0.90;99.90;;;;;;5118736;27;20413;-73
2022/01/19 08:28:53;;;;;;;0.00;0.00;;;0.90;99.90;;;;;;5117351;27;20015;-74
2022/01/19 08:31:19;;;;;;;0.00;0.00;;;0.90;99.90;;;;;;5119463;27;20043;-80
2022/01/19 08:33:44;;;;;;;0.00;0.00;;;0.90;99.90;;;;;;5119812;27;20027;-78
2022/01/19 08:36:10;;;;;;;0.00;0.00;;;0.90;99.90;;;;;;5117197;27;20098;-81
2022/01/19 08:38:36;;;;;;;0.00;0.00;;;0.90;99.90;;;;;;5118086;27;20351;-78
2022/01/19 08:41:02;;;;;;;0.00;0.00;;;1.00;99.90;;;;;;5112117;28;20023;-80
2022/01/19 08:43:28;;;;;;;0.00;0.00;;;1.00;99.90;;;;;;5119268;27;20210;-78
2022/01/19 08:45:55;;;;;;;0.00;0.00;;;1.00;99.90;;;;;;5117714;27;20058;-74
2022/01/19 08:48:21;;;;;;;0.00;0.00;;;1.00;99.90;;;;;;5099459;28;20064;-82
2022/01/19 08:50:47;;;;;;;0.00;0.00;;;1.00;99.90;;;;;;5120893;27;20023;-82
2022/01/19 08:53:14;;;;;;;0.00;0.00;;;1.10;99.90;;;;;;5100120;28;20127;-82
2022/01/19 08:55:40;;;;;;;0.00;0.00;;;1.10;99.90;;;;;;5118610;27;20054;-81
2022/01/19 08:58:07;;;;;;;0.00;0.00;;;1.00;99.90;;;;;;5122395;28;20023;-81
2022/01/19 09:00:33;;;;;;;0.00;0.00;;;1.10;99.90;;;;;;5121700;28;20075;-83
2022/01/19 09:02:59;;;;;;;0.00;0.00;;;1.10;99.90;;;;;;5119076;28;20081;-81
2022/01/19 09:05:25;;;;;;;0.00;0.00;;;1.10;99.90;;;;;;5120609;28;20038;-83
2022/01/19 09:07:52;;;;;;;0.00;0.00;;;1.10;99.90;;;;;;5111787;27;20015;-73
2022/01/19 09:10:18;;;;;;;0.00;0.00;;;1.10;99.90;;;;;;5102285;28;20322;-77
2022/01/19 09:12:44;;;;;;;0.00;0.00;;;1.10;99.90;;;;;;5113690;28;20651;-77
2022/01/19 09:15:11;;;;;;;0.00;0.00;;;1.10;99.90;;;;;;5116486;28;20098;-79
2022/01/19 09:17:37;;;;;;;0.00;0.00;;;1.20;99.90;;;;;;5128958;28;20177;-72
2022/01/19 09:20:05;;;;;;;0.00;0.00;;;1.10;99.90;;;;;;5126838;28;20023;-80
2022/01/19 09:22:32;;;;;;;0.00;0.00;;;1.20;99.90;;;;;;5128017;28;20027;-79
2022/01/19 09:24:58;;;;;;;0.00;0.00;;;1.20;99.90;;;;;;5098608;28;20080;-80
2022/01/19 09:27:23;;;;;;;0.00;0.00;;;1.20;99.90;;;;;;5112550;28;20338;-70
2022/01/19 09:29:49;;;;;;;0.00;0.00;;;1.20;99.90;;;;;;5126201;28;20011;-70
2022/01/19 09:32:15;;;;;;;0.00;0.00;;;1.30;99.90;;;;;;5115546;28;20061;-71
2022/01/19 09:34:47;;;;;;;0.00;0.00;;;1.30;99.90;;;;;;5114966;28;20023;-70
2022/01/19 09:37:13;;;;;;;0.00;0.00;;;1.30;99.90;;;;;;5106664;27;20087;-71
2022/01/19 09:39:39;;;;;;;0.00;0.00;;;1.30;99.90;;;;;;5114186;27;20026;-73
2022/01/19 09:42:06;;;;;;;0.00;0.00;;;1.40;99.90;;;;;;5118413;27;20313;-73
2022/01/19 09:44:32;;;;;;;0.00;0.00;;;1.50;99.90;;;;;;5111653;27;20028;-71
2022/01/19 09:46:59;;;;;;;0.00;0.00;;;1.50;99.90;;;;;;5117678;27;20054;-73
2022/01/19 09:49:25;;;;;;;0.00;0.00;;;1.50;99.90;;;;;;5117035;27;20028;-72
2022/01/19 09:51:54;;;;;;;0.00;0.00;;;1.50;99.90;;;;;;5118824;27;20018;-74
2022/01/19 09:54:22;;;;;;;0.00;0.00;;;1.50;99.90;;;;;;5102916;27;20046;-74
2022/01/19 09:56:48;;;;;;;;;;;1.60;99.90;;;;;;5118685;27;20019;-73
2022/01/19 09:59:15;;;;;;;0.00;0.00;;;1.60;99.90;;;;;;5116908;27;20098;-77
2022/01/19 10:01:55;;;;;;;0.00;0.00;;;1.70;99.90;;;;;;5117392;27;20290;-77
2022/01/19 10:04:34;;;;;;;0.00;0.00;;;1.70;99.90;;;;;;5105764;27;20314;-77
2022/01/19 10:07:29;;;;;;;0.00;0.00;;;1.80;99.90;;;;;;5129383;27;20305;-78
2022/01/19 10:09:57;;;;;;;0.00;0.00;;;1.90;99.90;;;;;;5102243;27;20038;-79
2022/01/19 10:18:19;;;;;;;0.00;0.00;;;2.10;99.90;;;;;;5125421;27;20027;-79
2022/01/19 10:21:05;;;;;;;0.00;0.00;;;2.20;99.90;;;;;;5100704;27;20358;-77
2022/01/19 10:23:38;;;;;;;0.00;0.00;;;2.30;99.90;;;;;;5101022;28;20215;-74
2022/01/19 10:26:07;;;;;;;0.00;0.00;;;2.40;99.90;;;;;;5118684;27;20022;-74
2022/01/19 10:29:03;;;;;;;0.00;0.00;;;2.50;99.90;;;;;;5119738;27;20077;-72
2022/01/19 10:31:31;;;;;;;0.00;0.00;;;2.50;99.90;;;;;;5099427;27;20027;-72
2022/01/19 10:34:17;;;;;;;0.00;0.00;;;2.60;99.90;;;;;;5088627;27;20563;-75
2022/01/19 10:36:49;;;;;;;0.00;0.00;;;2.70;99.90;;;;;;5100512;27;20028;-78
2022/01/19 10:39:16;;;;;;;0.00;0.00;;;2.70;99.90;;;;;;5099741;27;20091;-75
2022/01/19 10:42:01;;;;;;;0.00;0.00;;;2.70;99.90;;;;;;5113967;27;20114;-74
2022/01/19 10:44:35;;;;;;;0.00;0.00;;;2.90;99.90;;;;;;5100692;27;20531;-75
2022/01/19 10:47:02;;;;;;;0.00;0.00;;;2.90;99.90;;;;;;5113375;27;20075;-77
2022/01/19 10:49:27;;;;;;;0.00;0.00;;;3.00;99.90;;;;;;5101339;27;20386;-73
2022/01/19 10:51:58;;;;;;;0.00;0.00;;;3.00;99.90;;;;;;5101341;27;20023;-76
2022/01/19 10:54:30;;;;;;;0.00;0.00;;;2.90;99.90;;;;;;5119667;27;20181;-76
2022/01/19 10:57:00;;;;;;;0.00;0.00;;;3.00;99.90;;;;;;5102878;27;20024;-77
2022/01/19 10:59:31;;;;;;;0.00;0.00;;;3.10;99.90;;;;;;5092668;27;20020;-73
2022/01/19 11:01:59;;;;;;;0.00;0.00;;;3.00;99.90;;;;;;5114998;27;20171;-72
2022/01/19 11:04:42;;;;;;;0.00;0.00;;;3.10;99.90;;;;;;5099694;27;20051;-75
2022/01/19 11:07:19;;;;;;;0.00;0.00;;;3.10;99.90;;;;;;5113078;28;20031;-72
2022/01/19 11:09:46;;;;;;;0.00;0.00;;;3.10;99.90;;;;;;5121814;27;20019;-75
2022/01/19 11:12:19;;;;;;;0.00;0.00;;;3.10;99.90;;;;;;5116472;28;20027;-82
2022/01/19 11:14:45;;;;;;;0.00;0.00;;;3.20;99.90;;;;;;5102437;27;20023;-75
2022/01/19 11:17:11;;;;;;;0.00;0.00;;;3.20;99.90;;;;;;5114351;28;20206;-76
2022/01/19 11:19:43;;;;;;;0.00;0.00;;;3.20;99.90;;;;;;5105398;27;20380;-74
2022/01/19 11:22:34;;;;;;;0.00;0.00;;;3.20;99.90;;;;;;5101830;28;20095;-76
2022/01/19 11:25:17;;;;;;;0.00;0.00;;;3.30;99.90;;;;;;5078362;27;20072;-78
2022/01/19 11:27:46;;;;;;;0.00;0.00;;;3.40;99.90;;;;;;5103177;28;20278;-79
2022/01/19 11:30:23;;;;;;;0.00;0.00;;;3.40;99.90;;;;;;5101769;28;20034;-77
2022/01/19 11:33:16;;;;;;;0.00;0.00;;;3.60;99.90;;;;;;5102920;27;20026;-78
2022/01/19 11:35:46;;;;;;;0.00;0.00;;;3.50;99.90;;;;;;5119975;27;20034;-76
2022/01/19 11:38:31;;;;;;;0.00;0.00;;;3.50;99.90;;;;;;5117404;28;20023;-79
2022/01/19 11:40:58;;;;;;;0.00;0.00;;;3.50;99.90;;;;;;5122052;27;20035;-75
2022/01/19 11:43:29;;;;;;;0.00;0.00;;;3.50;99.90;;;;;;5125271;27;20020;-80
2022/01/19 11:45:59;;;;;;;0.00;0.00;;;3.50;99.90;;;;;;5100375;28;20042;-82
2022/01/19 11:48:28;;;;;;;0.00;0.00;;;3.50;99.90;;;;;;5119372;27;20015;-78
2022/01/19 11:51:15;;;;;;;0.00;0.00;;;3.40;99.90;;;;;;5121118;27;20027;-74
2022/01/19 11:54:00;;;;;;;0.00;0.00;;;3.50;99.90;;;;;;5123773;27;20031;-77
2022/01/19 11:56:26;;;;;;;0.00;0.00;;;3.50;99.90;;;;;;5102235;27;20031;-77
2022/01/19 11:59:08;;;;;;;0.00;0.00;;;3.50;99.90;;;;;;5118875;27;20083;-75
2022/01/19 12:01:35;;;;;;;0.00;0.00;;;3.50;99.90;;;;;;5097729;27;20033;-76
2022/01/19 12:04:20;;;;;;;0.00;0.00;;;3.50;99.90;;;;;;5112811;27;20043;-78
2022/01/19 12:06:47;;;;;;;0.00;0.00;;;3.50;99.90;;;;;;5092636;27;20031;-72
2022/01/19 12:09:14;;;;;;;0.00;0.00;;;3.50;99.90;;;;;;5116176;27;20042;-75
2022/01/19 12:11:48;;;;;;;0.00;0.00;;;3.50;99.90;;;;;;5098433;27;20023;-71
2022/01/19 12:16:58;;;;;;;0.00;0.00;;;3.50;99.90;;;;;;5117487;27;20031;-72
2022/01/19 12:19:28;;;;;;;0.00;0.00;;;3.50;99.90;;;;;;5104417;27;20314;-70
2022/01/19 12:22:05;;;;;;;0.00;0.00;;;3.50;99.90;;;;;;5123133;27;20074;-79
2022/01/19 12:24:47;;;;;;;0.00;0.00;;;3.50;99.90;;;;;;5114656;27;20322;-80
2022/01/19 12:27:15;;;;;;;0.00;0.00;;;3.60;99.90;;;;;;5114513;28;20045;-80
2022/01/19 12:29:50;;;;;;;;;;;3.70;99.90;;;;;;5118980;27;20015;-80
2022/01/19 12:32:16;;;;;;;0.00;0.00;;;3.70;99.90;;;;;;5115151;27;20335;-80
2022/01/19 12:34:50;;;;;;;0.00;0.00;;;3.70;99.90;;;;;;5120709;27;20094;-79
2022/01/19 12:37:40;;;;;;;0.00;0.00;;;3.70;99.90;;;;;;5120174;27;20031;-72
2022/01/19 12:40:26;;;;;;;0.00;0.00;;;3.90;99.90;;;;;;5119277;27;20011;-73
2022/01/19 12:43:02;;;;;;;0.00;0.00;;;4.00;99.90;;;;;;5102013;28;20290;-85
2022/01/19 12:45:30;;;;;;;0.00;0.00;;;4.10;99.90;;;;;;5117501;27;20029;-85
2022/01/19 12:47:57;;;;;;;0.00;0.00;;;4.20;99.90;;;;;;5112104;28;20055;-78
2022/01/19 12:50:29;;;;;;;0.00;0.00;;;4.30;99.90;;;;;;5122234;28;20115;-78
2022/01/19 12:52:58;;;;;;;0.00;0.00;;;4.40;99.90;;;;;;5107411;28;20022;-78
2022/01/19 12:55:29;;;;;;;0.00;0.00;;;4.50;99.90;;;;;;5107827;28;20023;-76
2022/01/19 12:57:56;;;;;;;0.00;0.00;;;4.50;99.90;;;;;;5125011;28;20019;-78
2022/01/19 13:00:29;;;;;;;0.00;0.00;;;4.60;99.90;;;;;;5143549;28;20072;-86
2022/01/19 13:02:57;;;;;;;0.00;0.00;;;4.60;99.90;;;;;;5117684;28;20091;-86
2022/01/19 13:05:24;;;;;;;0.00;0.00;;;4.70;99.90;;;;;;5122760;28;20141;-82
2022/01/19 13:07:56;;;;;;;0.00;0.00;;;4.60;99.90;;;;;;5123215;28;20022;-80
2022/01/19 13:10:46;;;;;;;0.00;0.00;;;4.60;99.90;;;;;;5106809;28;20015;-78
2022/01/19 13:13:29;;;;;;;0.00;0.00;;;4.60;99.90;;;;;;5109138;28;20184;-72
2022/01/19 13:15:56;;;;;;;0.00;0.00;;;4.70;99.90;;;;;;5114622;28;20383;-81
2022/01/19 13:18:35;;;;;;;0.00;0.00;;;4.70;99.90;;;;;;5125636;28;20061;-77
2022/01/19 13:21:05;;;;;;;;;;;4.70;99.90;;;;;;5133376;27;21414;-81
2022/01/19 13:23:34;;;;;;;0.00;0.00;;;4.70;99.90;;;;;;5144486;27;19907;-80
2022/01/19 13:26:05;;;;;;;0.00;0.00;;;4.70;99.90;;;;;;5123928;27;20352;-79
2022/01/19 13:28:33;;;;;;;0.00;0.00;;;4.60;99.90;;;;;;5126866;28;20016;-81
2022/01/19 13:31:13;;;;;;;0.00;0.00;;;4.60;99.90;;;;;;5126355;28;20321;-81
2022/01/19 13:33:40;;;;;;;0.00;0.00;;;4.60;99.90;;;;;;5125858;28;20036;-81
2022/01/19 13:36:07;;;;;;;0.00;0.00;;;4.50;99.90;;;;;;5113467;27;20018;-77
2022/01/19 13:38:33;;;;;;;0.00;0.00;;;4.50;99.90;;;;;;5115610;27;20065;-81
2022/01/19 13:41:07;;;;;;;0.00;0.00;;;4.50;99.90;;;;;;5127009;27;20016;-80
2022/01/19 13:43:35;;;;;;;0.00;0.00;;;4.60;99.90;;;;;;5128882;27;20019;-79
2022/01/19 13:46:15;;;;;;;0.00;0.00;;;4.60;99.90;;;;;;5117939;28;20030;-80
2022/01/19 13:48:47;;;;;;;0.00;0.00;;;4.50;99.90;;;;;;5108678;28;20020;-83
2022/01/19 13:51:14;;;;;;;0.00;0.00;;;4.50;99.90;;;;;;5126791;28;20015;-79
2022/01/19 13:54:00;;;;;;;0.00;0.00;;;4.40;99.90;;;;;;5108254;28;20023;-79
2022/01/19 13:56:37;;;;;;;0.00;0.00;;;4.40;99.90;;;;;;5130171;27;20034;-80
2022/01/19 13:59:19;;;;;;;0.00;0.00;;;4.40;99.90;;;;;;5137313;27;20023;-80
2022/01/19 14:01:59;;;;;;;0.00;0.00;;;4.40;99.90;;;;;;5128999;27;20022;-75
2022/01/19 14:04:31;;;;;;;0.00;0.00;;;4.40;99.90;;;;;;5128868;27;20035;-80
2022/01/19 14:07:13;;;;;;;0.00;0.00;;;4.40;99.90;;;;;;5124435;27;20360;-80
2022/01/19 14:09:39;;;;;;;0.00;0.00;;;4.40;99.90;;;;;;5127850;28;20050;-81
2022/01/19 14:12:08;;;;;;;0.00;0.00;;;4.40;99.90;;;;;;5108496;28;20386;-80
2022/01/19 14:14:41;;;;;;;0.00;0.00;;;4.40;99.90;;;;;;5110697;28;20094;-81
2022/01/19 14:17:09;;;;;;;0.00;0.00;;;4.40;99.90;;;;;;5125554;27;20094;-81
2022/01/19 14:19:44;;;;;;;0.00;0.00;;;4.60;99.90;;;;;;5114182;28;20015;-81
2022/01/19 14:22:12;;;;;;;0.00;0.00;;;4.60;99.90;;;;;;5125428;28;20019;-77
2022/01/19 14:24:45;;;;;;;0.00;0.00;;;4.60;99.90;;;;;;5126159;28;20237;-76
2022/01/19 14:27:23;;;;;;;0.00;0.00;;;4.60;99.90;;;;;;5125506;28;20024;-79
2022/01/19 14:30:09;;;;;;;0.00;0.00;;;4.50;99.90;;;;;;5107587;28;20039;-74
2022/01/19 14:32:43;;;;;;;0.00;0.00;;;4.50;99.90;;;;;;5114688;27;20023;-79
2022/01/19 14:35:26;;;;;;;0.00;0.00;;;4.50;99.90;;;;;;5123534;27;20151;-79
2022/01/19 14:38:17;;;;;;;0.00;0.00;;;4.50;99.90;;;;;;5124213;27;20027;-79
2022/01/19 14:41:01;;;;;;;0.00;0.00;;;4.50;99.90;;;;;;5125395;27;20023;-75
2022/01/19 14:43:47;;;;;;;0.00;0.00;;;4.40;99.90;;;;;;5153062;27;20050;-82
2022/01/19 14:46:25;;;;;;;0.00;0.00;;;4.40;99.90;;;;;;5148094;27;20180;-80
2022/01/19 14:48:53;;;;;;;0.00;0.00;;;4.40;99.90;;;;;;5125983;27;20064;-72
2022/01/19 14:51:19;;;;;;;0.00;0.00;;;4.40;99.90;;;;;;5129586;27;20023;-77